Time;durP1;ratioP1;P1;durP2;ratioP2;P2;SDS_P1;SDS_P2;PMS_P1;PMS_P2;Temp;Humidity;BMP_temperature;BMP_pressure;BME280_temperature;BME280_humidity;BME280_pressure;Samples;Min_cycle;Max_cycle;Signal;HPM_P1;HPM_P2
2019/08/16 00:00:11;;;;;;;4.5;1.7;;;;;;;18.28;68.21582;1005.427;;;;
2019/08/16 00:02:42;;;;;;;5;1.9;;;;;;;18.3;68.0791;1005.421;;;;
2019/08/16 00:05:01;;;;;;;4.1;1.6;;;;;;;18.37;67.90234;1005.406;;;;
2019/08/16 00:07:26;;;;;;;4.3;1.8;;;;;;;18.4;67.87402;1005.41;;;;
2019/08/16 00:09:52;;;;;;;4.5;1.7;;;;;;;18.39;67.94141;1005.404;;;;
2019/08/16 00:12:16;;;;;;;4;1.6;;;;;;;18.43;68.00488;1005.427;;;;
2019/08/16 00:14:42;;;;;;;5.3;1.8;;;;;;;18.47;67.8252;1005.402;;;;
2019/08/16 00:17:07;;;;;;;4;1.8;;;;;;;18.46;67.8457;1005.358;;;;
2019/08/16 00:19:32;;;;;;;4.4;2;;;;;;;18.5;67.55078;1005.416;;;;
2019/08/16 00:21:57;;;;;;;6.5;2;;;;;;;18.45;67.8457;1005.414;;;;
2019/08/16 00:24:22;;;;;;;3.8;1.7;;;;;;;18.39;67.99805;1005.375;;;;
2019/08/16 00:26:47;;;;;;;7.3;2.1;;;;;;;18.32;68.12988;1005.362;;;;
2019/08/16 00:29:12;;;;;;;5.3;2;;;;;;;18.35;68.40039;1005.362;;;;
2019/08/16 00:31:37;;;;;;;6.5;1.9;;;;;;;18.24;68.9082;1005.463;;;;
2019/08/16 00:34:02;;;;;;;5.9;2.1;;;;;;;18.2;68.98438;1005.414;;;;
2019/08/16 00:36:27;;;;;;;5.4;2.2;;;;;;;18.18;69.12109;1005.426;;;;
2019/08/16 00:38:52;;;;;;;5.5;1.9;;;;;;;18.09;69.63086;1005.413;;;;
2019/08/16 00:41:18;;;;;;;5.4;1.7;;;;;;;18.11;69.26074;1005.372;;;;
2019/08/16 00:43:43;;;;;;;5.3;1.8;;;;;;;18.24;68.8623;1005.406;;;;
2019/08/16 00:46:08;;;;;;;6;1.9;;;;;;;18.05;69.76367;1005.371;;;;
2019/08/16 00:48:33;;;;;;;4.6;1.7;;;;;;;18.1;69.70215;1005.355;;;;
2019/08/16 00:50:58;;;;;;;4.2;1.6;;;;;;;18;70.12793;1005.372;;;;
2019/08/16 00:53:23;;;;;;;5.4;1.8;;;;;;;18.06;69.92773;1005.427;;;;
2019/08/16 00:55:48;;;;;;;4.8;1.9;;;;;;;18.08;69.6875;1005.436;;;;
2019/08/16 00:58:13;;;;;;;5.9;1.9;;;;;;;18.02;70.09668;1005.388;;;;
2019/08/16 01:00:38;;;;;;;7.7;2;;;;;;;18.01;70.26855;1005.419;;;;
2019/08/16 01:03:03;;;;;;;8.2;2.1;;;;;;;17.87;70.96875;1005.441;;;;
2019/08/16 01:05:28;;;;;;;5.4;2.1;;;;;;;17.91;70.75488;1005.429;;;;
2019/08/16 01:07:54;;;;;;;4;1.9;;;;;;;17.88;70.90234;1005.42;;;;
2019/08/16 01:10:19;;;;;;;6.5;2.1;;;;;;;17.91;70.70801;1005.466;;;;
2019/08/16 01:12:44;;;;;;;7;1.9;;;;;;;17.81;71.22656;1005.45;;;;
2019/08/16 01:15:09;;;;;;;5.5;2;;;;;;;17.81;71.11133;1005.428;;;;
2019/08/16 01:17:35;;;;;;;6;1.9;;;;;;;17.73;71.57617;1005.441;;;;
2019/08/16 01:20:00;;;;;;;6.7;2.5;;;;;;;17.54;72.14844;1005.499;;;;
2019/08/16 01:24:50;;;;;;;5;1.9;;;;;;;17.56;72.11816;1005.497;;;;
2019/08/16 01:27:16;;;;;;;6.7;2.1;;;;;;;17.4;72.8125;1005.524;;;;
2019/08/16 01:29:44;;;;;;;5.9;2.1;;;;;;;17.39;72.88086;1005.531;;;;
2019/08/16 01:32:45;;;;;;;6.5;2.2;;;;;;;17.38;73.18164;1005.523;;;;
2019/08/16 01:34:38;;;;;;;7.4;2.1;;;;;;;17.37;73.19141;1005.528;;;;
2019/08/16 01:37:03;;;;;;;6.1;2;;;;;;;17.24;73.75195;1005.493;;;;
2019/08/16 01:39:20;;;;;;;9.5;2.1;;;;;;;17.16;74.05078;1005.526;;;;
2019/08/16 01:41:45;;;;;;;7.5;2.6;;;;;;;17.09;74.45703;1005.515;;;;
2019/08/16 01:44:11;;;;;;;5.1;2.1;;;;;;;17.2;73.98828;1005.535;;;;
2019/08/16 01:46:36;;;;;;;6.4;2.1;;;;;;;17.14;74.46582;1005.555;;;;
2019/08/16 01:49:01;;;;;;;4.2;2;;;;;;;17.09;74.52832;1005.554;;;;
2019/08/16 01:51:26;;;;;;;6.1;2.1;;;;;;;17.02;75.06152;1005.518;;;;
2019/08/16 01:53:51;;;;;;;8.9;2.4;;;;;;;17.1;74.84375;1005.509;;;;
2019/08/16 01:56:16;;;;;;;4.7;2.2;;;;;;;16.98;75.23047;1005.466;;;;
2019/08/16 01:58:41;;;;;;;5.8;2.1;;;;;;;17;75.24512;1005.476;;;;
2019/08/16 02:01:07;;;;;;;6;2.3;;;;;;;16.99;75.39453;1005.457;;;;
2019/08/16 02:03:32;;;;;;;5.9;2.4;;;;;;;17.01;75.14063;1005.459;;;;
2019/08/16 02:05:57;;;;;;;5.5;2.1;;;;;;;16.93;75.58105;1005.49;;;;
2019/08/16 02:08:22;;;;;;;5.8;2.3;;;;;;;16.92;75.55469;1005.461;;;;
2019/08/16 02:10:47;;;;;;;6.1;2.1;;;;;;;16.88;75.76953;1005.48;;;;
2019/08/16 02:13:12;;;;;;;8.8;2.3;;;;;;;16.76;76.30664;1005.489;;;;
2019/08/16 02:15:38;;;;;;;7.1;2.2;;;;;;;16.78;76.13477;1005.455;;;;
2019/08/16 02:18:03;;;;;;;7.9;2.4;;;;;;;16.73;76.38281;1005.415;;;;
2019/08/16 02:20:28;;;;;;;8.4;2.4;;;;;;;16.7;76.5293;1005.399;;;;
2019/08/16 02:22:53;;;;;;;8.5;2.7;;;;;;;16.66;76.93945;1005.394;;;;
2019/08/16 02:25:18;;;;;;;6.8;2.4;;;;;;;16.69;76.52637;1005.374;;;;
2019/08/16 02:27:43;;;;;;;9.7;2.9;;;;;;;16.74;76.19824;1005.4;;;;
2019/08/16 02:30:08;;;;;;;7.1;2.2;;;;;;;16.75;76.23633;1005.422;;;;
2019/08/16 02:32:34;;;;;;;5.9;2.3;;;;;;;16.63;76.49316;1005.377;;;;
2019/08/16 02:34:59;;;;;;;6.2;2.3;;;;;;;16.67;76.41797;1005.394;;;;
2019/08/16 02:37:24;;;;;;;5.7;2.3;;;;;;;16.65;76.29785;1005.365;;;;
2019/08/16 02:39:49;;;;;;;6.5;2.2;;;;;;;16.56;76.6416;1005.352;;;;
2019/08/16 02:42:14;;;;;;;8.1;2.2;;;;;;;16.58;76.41406;1005.327;;;;
2019/08/16 02:44:40;;;;;;;7.9;2.4;;;;;;;16.52;76.58887;1005.338;;;;
2019/08/16 02:47:05;;;;;;;6.5;2.3;;;;;;;16.48;76.6875;1005.322;;;;
2019/08/16 02:49:30;;;;;;;6.8;2.3;;;;;;;16.5;76.50586;1005.265;;;;
2019/08/16 02:51:55;;;;;;;5.1;2.2;;;;;;;16.55;76.06152;1005.256;;;;
2019/08/16 02:54:20;;;;;;;8.9;2.5;;;;;;;16.51;76.2041;1005.197;;;;
2019/08/16 02:56:46;;;;;;;7.5;2.2;;;;;;;16.43;76.59668;1005.201;;;;
2019/08/16 02:59:13;;;;;;;6.1;2;;;;;;;16.44;76.53027;1005.175;;;;
2019/08/16 03:01:51;;;;;;;9.9;2.9;;;;;;;16.49;76.22461;1005.195;;;;
2019/08/16 03:04:05;;;;;;;5.9;2.2;;;;;;;16.52;75.99902;1005.101;;;;
2019/08/16 03:08:51;;;;;;;4.9;1.9;;;;;;;16.35;76.65137;1005.071;;;;
2019/08/16 03:11:16;;;;;;;6.9;2.6;;;;;;;16.31;76.93555;1005.086;;;;
2019/08/16 03:13:41;;;;;;;5.6;2.1;;;;;;;16.3;76.80664;1005.084;;;;
2019/08/16 03:16:07;;;;;;;6.3;2.2;;;;;;;16.32;76.78613;1005.104;;;;
2019/08/16 03:18:32;;;;;;;6.5;2.2;;;;;;;16.33;76.99707;1005.098;;;;
2019/08/16 03:20:57;;;;;;;6.6;2.3;;;;;;;16.28;77.1377;1005.072;;;;
2019/08/16 03:23:22;;;;;;;7.2;2.4;;;;;;;16.29;77.28027;1005.044;;;;
2019/08/16 03:25:47;;;;;;;6.6;2.2;;;;;;;16.27;77.42773;1005.047;;;;
2019/08/16 03:28:13;;;;;;;4.8;2.2;;;;;;;16.22;77.96387;1005.1;;;;
2019/08/16 03:30:38;;;;;;;5.6;2.3;;;;;;;16.17;78.19922;1005.106;;;;
2019/08/16 03:33:06;;;;;;;6.5;2.6;;;;;;;16.19;78.13477;1005.118;;;;
2019/08/16 03:35:32;;;;;;;6.1;2.5;;;;;;;16.2;78.28516;1005.135;;;;
2019/08/16 03:37:57;;;;;;;5.9;2.2;;;;;;;16.26;78.41113;1005.127;;;;
2019/08/16 03:40:22;;;;;;;5;2.1;;;;;;;16.26;78.5752;1005.147;;;;
2019/08/16 03:42:47;;;;;;;5.1;2;;;;;;;16.31;78.4668;1005.228;;;;
2019/08/16 03:45:12;;;;;;;7;2.5;;;;;;;16.39;78.33008;1005.259;;;;
2019/08/16 03:47:37;;;;;;;4.4;1.9;;;;;;;16.49;78.04688;1005.264;;;;
2019/08/16 03:50:02;;;;;;;6.2;2.7;;;;;;;16.34;78.61133;1005.313;;;;
2019/08/16 03:52:27;;;;;;;4.8;2.2;;;;;;;16.11;79.32422;1005.273;;;;
2019/08/16 03:54:53;;;;;;;8;2.6;;;;;;;16.2;79.44531;1005.302;;;;
2019/08/16 03:57:18;;;;;;;5.8;2.6;;;;;;;16.24;79.73145;1005.322;;;;
2019/08/16 03:59:43;;;;;;;7.4;2.6;;;;;;;16.33;79.83887;1005.349;;;;
2019/08/16 04:02:28;;;;;;;6.7;2.6;;;;;;;16.3;80.27539;1005.338;;;;
2019/08/16 04:04:53;;;;;;;6.5;2.4;;;;;;;16.25;80.54297;1005.38;;;;
2019/08/16 04:07:18;;;;;;;4.7;2.5;;;;;;;16.3;80.30957;1005.429;;;;
2019/08/16 04:09:43;;;;;;;7.3;2.7;;;;;;;16.22;80.875;1005.437;;;;
2019/08/16 04:12:08;;;;;;;5.8;2.4;;;;;;;16.3;80.73926;1005.438;;;;
2019/08/16 04:14:33;;;;;;;7.5;2.7;;;;;;;16.42;80.48242;1005.446;;;;
2019/08/16 04:17:17;;;;;;;6;2.5;;;;;;;16.29;81.14355;1005.465;;;;
2019/08/16 04:19:25;;;;;;;6.1;2.4;;;;;;;16.37;80.91309;1005.493;;;;
2019/08/16 04:21:52;;;;;;;6.7;2.6;;;;;;;16.31;81.27246;1005.467;;;;
2019/08/16 04:26:39;;;;;;;5.4;2.5;;;;;;;16.24;81.7959;1005.544;;;;
2019/08/16 04:29:04;;;;;;;4.9;2.7;;;;;;;16.16;82.20996;1005.646;;;;
2019/08/16 04:31:42;;;;;;;8.1;2.6;;;;;;;16.15;82.47363;1005.648;;;;
2019/08/16 04:34:07;;;;;;;7.2;2.8;;;;;;;16.16;82.24512;1005.629;;;;
2019/08/16 04:36:32;;;;;;;6.7;2.8;;;;;;;16.15;82.55469;1005.636;;;;
2019/08/16 04:38:57;;;;;;;5.2;2.3;;;;;;;16.26;82.32129;1005.608;;;;
2019/08/16 04:41:22;;;;;;;8.6;3.4;;;;;;;16.18;82.59473;1005.653;;;;
2019/08/16 04:43:47;;;;;;;8.2;2.9;;;;;;;16.14;82.84473;1005.646;;;;
2019/08/16 04:46:12;;;;;;;8.5;2.8;;;;;;;16.2;82.9707;1005.685;;;;
2019/08/16 04:48:37;;;;;;;7.2;2.9;;;;;;;16.25;83.07227;1005.725;;;;
2019/08/16 04:51:03;;;;;;;6.5;3;;;;;;;16.24;83.1748;1005.754;;;;
2019/08/16 04:53:28;;;;;;;5.6;2.9;;;;;;;16.15;83.78418;1005.7;;;;
2019/08/16 04:55:53;;;;;;;6.6;3.2;;;;;;;16.23;83.69629;1005.739;;;;
2019/08/16 04:58:18;;;;;;;6;3;;;;;;;16.21;83.89063;1005.775;;;;
2019/08/16 05:00:43;;;;;;;7;3.5;;;;;;;16.37;83.3623;1005.775;;;;
2019/08/16 05:03:08;;;;;;;7.2;2.8;;;;;;;16.39;83.22656;1005.745;;;;
2019/08/16 05:05:33;;;;;;;7.8;3.5;;;;;;;16.29;83.68359;1005.828;;;;
2019/08/16 05:07:58;;;;;;;6.8;2.9;;;;;;;16.45;83.07617;1005.795;;;;
2019/08/16 05:10:24;;;;;;;6.6;4.3;;;;;;;16.46;83.01855;1005.83;;;;
2019/08/16 05:12:49;;;;;;;7.7;3.3;;;;;;;16.29;83.8457;1005.896;;;;
2019/08/16 05:15:14;;;;;;;7.1;3.1;;;;;;;16.42;83.45215;1005.863;;;;
2019/08/16 05:17:39;;;;;;;7.8;3.3;;;;;;;16.45;83.30859;1005.841;;;;
2019/08/16 05:20:04;;;;;;;9.2;3;;;;;;;16.55;83.00195;1005.826;;;;
2019/08/16 05:22:29;;;;;;;9.8;3.4;;;;;;;16.53;83.08008;1005.84;;;;
2019/08/16 05:24:54;;;;;;;9.3;3;;;;;;;16.6;82.9082;1005.874;;;;
2019/08/16 05:27:19;;;;;;;6.8;3;;;;;;;16.64;82.81055;1005.893;;;;
2019/08/16 05:29:44;;;;;;;7.4;3.3;;;;;;;16.79;82.14063;1005.91;;;;
2019/08/16 05:32:09;;;;;;;8.3;2.8;;;;;;;16.79;82.08496;1005.849;;;;
2019/08/16 05:34:34;;;;;;;6.9;3.4;;;;;;;16.98;81.27051;1005.897;;;;
2019/08/16 05:37:00;;;;;;;4.7;2.9;;;;;;;16.99;81.19238;1005.926;;;;
2019/08/16 05:39:25;;;;;;;6.8;3.1;;;;;;;17.06;80.25293;1005.9;;;;
2019/08/16 05:41:50;;;;;;;9.9;3.8;;;;;;;17.37;79.57617;1005.933;;;;
2019/08/16 05:44:15;;;;;;;8.5;2.9;;;;;;;17.23;80.0498;1005.964;;;;
2019/08/16 05:46:41;;;;;;;8.2;3.3;;;;;;;17.36;79.39941;1005.982;;;;
2019/08/16 05:49:06;;;;;;;8.7;3.1;;;;;;;17.49;79.21289;1005.979;;;;
2019/08/16 05:51:31;;;;;;;9.7;2.8;;;;;;;17.79;77.20801;1005.994;;;;
2019/08/16 05:53:56;;;;;;;10.2;2.8;;;;;;;18.47;74.85547;1006.013;;;;
2019/08/16 05:56:21;;;;;;;8.5;2.7;;;;;;;18.45;74.24609;1006.039;;;;
2019/08/16 05:58:46;;;;;;;13.7;2.8;;;;;;;18.7;73.39063;1006.065;;;;
2019/08/16 06:01:12;;;;;;;6.9;2.5;;;;;;;18.59;72.99805;1006.094;;;;
2019/08/16 06:03:37;;;;;;;10.1;2.6;;;;;;;18.62;73.17871;1006.17;;;;
2019/08/16 06:06:02;;;;;;;8.5;2.7;;;;;;;18.54;73.09375;1006.277;;;;
2019/08/16 06:08:27;;;;;;;8.4;2.9;;;;;;;18.59;72.45117;1006.24;;;;
2019/08/16 06:10:52;;;;;;;5.9;2.5;;;;;;;18.87;71.57422;1006.281;;;;
2019/08/16 06:13:17;;;;;;;8.4;2.4;;;;;;;19.67;68.46484;1006.368;;;;
2019/08/16 06:15:43;;;;;;;6.9;2.7;;;;;;;19.64;68.23926;1006.344;;;;
2019/08/16 06:18:08;;;;;;;6.5;2.3;;;;;;;20.1;66.0752;1006.397;;;;
2019/08/16 06:20:33;;;;;;;7.4;2.3;;;;;;;19.73;67.5166;1006.372;;;;
2019/08/16 06:22:58;;;;;;;7;2.5;;;;;;;19.99;66.08301;1006.453;;;;
2019/08/16 06:25:23;;;;;;;6.2;2.4;;;;;;;20.34;64.70703;1006.421;;;;
2019/08/16 06:27:48;;;;;;;7.6;2.4;;;;;;;21.4;60.48438;1006.389;;;;
2019/08/16 06:30:14;;;;;;;7.8;2.2;;;;;;;20.64;62.27734;1006.465;;;;
2019/08/16 06:32:39;;;;;;;11.3;2.7;;;;;;;19.87;64.68555;1006.477;;;;
2019/08/16 06:35:04;;;;;;;9.4;2.1;;;;;;;20.28;63.94824;1006.461;;;;
2019/08/16 06:37:29;;;;;;;7.1;2.1;;;;;;;20.19;64.07617;1006.438;;;;
2019/08/16 06:39:54;;;;;;;10;2.5;;;;;;;20.19;65.36523;1006.459;;;;
2019/08/16 06:42:19;;;;;;;9.6;2.5;;;;;;;20.35;65.41113;1006.443;;;;
2019/08/16 06:44:44;;;;;;;6;2.4;;;;;;;21.59;62.02441;1006.409;;;;
2019/08/16 06:47:09;;;;;;;5.3;2.2;;;;;;;22.39;59.50195;1006.408;;;;
2019/08/16 06:49:35;;;;;;;6.4;2;;;;;;;22.39;59.60742;1006.371;;;;
2019/08/16 06:52:00;;;;;;;6.1;2.7;;;;;;;22.83;58.08887;1006.333;;;;
2019/08/16 06:54:25;;;;;;;4.9;2.1;;;;;;;24.13;54.46875;1006.345;;;;
2019/08/16 06:56:50;;;;;;;4.6;2.4;;;;;;;26.31;48.63574;1006.37;;;;
2019/08/16 06:59:15;;;;;;;6.6;2.1;;;;;;;26.17;48.47852;1006.372;;;;
2019/08/16 07:01:41;;;;;;;5.5;2.2;;;;;;;26.6;47.21973;1006.366;;;;
2019/08/16 07:04:06;;;;;;;6.1;2;;;;;;;25.2;49.87793;1006.359;;;;
2019/08/16 07:06:31;;;;;;;5.4;2.1;;;;;;;25.48;49.9082;1006.353;;;;
2019/08/16 07:08:56;;;;;;;6.1;1.9;;;;;;;27.09;45.79785;1006.353;;;;
2019/08/16 07:11:21;;;;;;;5.7;1.9;;;;;;;25.49;48.70117;1006.403;;;;
2019/08/16 07:13:46;;;;;;;6.1;1.8;;;;;;;26.08;46.32227;1006.289;;;;
2019/08/16 07:16:11;;;;;;;5.6;2;;;;;;;25.33;48.48242;1006.321;;;;
2019/08/16 07:18:36;;;;;;;5.3;1.8;;;;;;;25.91;47.69141;1006.285;;;;
2019/08/16 07:21:01;;;;;;;5.8;2.2;;;;;;;26.6;45.99512;1006.328;;;;
2019/08/16 07:23:26;;;;;;;5.8;2;;;;;;;28.27;41.94824;1006.307;;;;
2019/08/16 07:25:52;;;;;;;5.6;1.9;;;;;;;26.78;45.87207;1006.279;;;;
2019/08/16 07:28:17;;;;;;;7.4;2.1;;;;;;;26.99;44.39648;1006.288;;;;
2019/08/16 07:30:42;;;;;;;4.7;1.8;;;;;;;28.2;41.95508;1006.259;;;;
2019/08/16 07:33:07;;;;;;;3.3;1.8;;;;;;;28.43;40.74805;1006.275;;;;
2019/08/16 07:38:10;;;;;;;6.5;1.9;;;;;;;27.95;42.19238;1006.247;;;;
2019/08/16 07:40:35;;;;;;;6.8;1.8;;;;;;;28.19;41.22656;1006.241;;;;
2019/08/16 07:43:00;;;;;;;5.1;1.7;;;;;;;27.09;43.14746;1006.268;;;;
2019/08/16 07:45:26;;;;;;;6.3;2.3;;;;;;;27.76;42.0791;1006.269;;;;
2019/08/16 07:47:51;;;;;;;7.1;2;;;;;;;29.34;38.78711;1006.32;;;;
2019/08/16 07:50:16;;;;;;;4.8;1.9;;;;;;;27.5;42.7334;1006.263;;;;
2019/08/16 07:52:41;;;;;;;5.3;2;;;;;;;29.37;38.12012;1006.262;;;;
2019/08/16 07:55:06;;;;;;;5;2;;;;;;;27.44;42.65625;1006.24;;;;
2019/08/16 07:57:31;;;;;;;5.3;1.9;;;;;;;29;39.1875;1006.23;;;;
2019/08/16 07:59:56;;;;;;;6.1;1.8;;;;;;;27.77;41.88965;1006.181;;;;
2019/08/16 08:04:46;;;;;;;6;1.9;;;;;;;29.71;37.7793;1006.148;;;;
2019/08/16 08:07:11;;;;;;;4.6;1.6;;;;;;;27.98;39.75293;1006.187;;;;
2019/08/16 08:09:37;;;;;;;3.8;1.7;;;;;;;26.68;42.52441;1006.12;;;;
2019/08/16 08:12:01;;;;;;;2.9;1.6;;;;;;;28.65;38.9541;1006.14;;;;
2019/08/16 08:14:27;;;;;;;5.4;1.9;;;;;;;29.61;36.82617;1006.101;;;;
2019/08/16 08:16:52;;;;;;;5;1.6;;;;;;;29.4;37.31152;1006.085;;;;
2019/08/16 08:19:17;;;;;;;5.2;1.6;;;;;;;29.39;37.01074;1006.13;;;;
2019/08/16 08:21:42;;;;;;;6.4;1.7;;;;;;;30.01;35.13574;1006.071;;;;
2019/08/16 08:24:07;;;;;;;6;1.6;;;;;;;29.67;35.875;1006.152;;;;
2019/08/16 08:26:32;;;;;;;5.8;1.6;;;;;;;28.96;36.71387;1006.103;;;;
2019/08/16 08:28:57;;;;;;;8.2;1.4;;;;;;;29.84;34.89551;1006.078;;;;
2019/08/16 08:31:22;;;;;;;7.5;1.7;;;;;;;28.25;38.02637;1006.09;;;;
2019/08/16 08:33:47;;;;;;;4;1.4;;;;;;;28.16;37.625;1006.034;;;;
2019/08/16 08:36:13;;;;;;;4.3;1.5;;;;;;;29.33;35.96777;1006.046;;;;
2019/08/16 08:38:38;;;;;;;5.4;1.5;;;;;;;29.44;35.36621;1006.024;;;;
2019/08/16 08:41:03;;;;;;;6.3;1.6;;;;;;;29.38;35.85156;1006.02;;;;
2019/08/16 08:43:28;;;;;;;6.4;1.8;;;;;;;30.88;33.41797;1006.001;;;;
2019/08/16 08:45:54;;;;;;;5.1;1.5;;;;;;;29.47;35.17871;1005.976;;;;
2019/08/16 08:48:18;;;;;;;3.6;1.4;;;;;;;28.57;37.32617;1005.983;;;;
2019/08/16 08:50:43;;;;;;;4.4;1.4;;;;;;;29.64;35.32227;1005.959;;;;
2019/08/16 08:53:08;;;;;;;3.8;1.5;;;;;;;28.99;36.38184;1005.914;;;;
2019/08/16 08:55:33;;;;;;;5.1;1.7;;;;;;;29.55;35.91309;1005.853;;;;
2019/08/16 08:57:59;;;;;;;7.9;1.9;;;;;;;30.49;33.96387;1005.805;;;;
2019/08/16 09:00:24;;;;;;;4.8;1.6;;;;;;;29.36;35.44434;1005.781;;;;
2019/08/16 09:02:50;;;;;;;5.6;1.9;;;;;;;29.55;35.91309;1005.825;;;;
2019/08/16 09:05:14;;;;;;;6.5;1.7;;;;;;;29.26;36.09277;1005.784;;;;
2019/08/16 09:07:40;;;;;;;6;1.9;;;;;;;30.21;34.74414;1005.685;;;;
2019/08/16 09:10:05;;;;;;;7;1.6;;;;;;;31;33.00684;1005.698;;;;
2019/08/16 09:12:30;;;;;;;5.2;1.6;;;;;;;30.8;33.66309;1005.643;;;;
2019/08/16 09:14:55;;;;;;;4.6;1.6;;;;;;;30.23;34.06445;1005.602;;;;
2019/08/16 09:17:20;;;;;;;3.4;1.4;;;;;;;28.91;36.08887;1005.599;;;;
2019/08/16 09:19:45;;;;;;;7.2;1.7;;;;;;;29.89;34.80469;1005.524;;;;
2019/08/16 09:22:10;;;;;;;4.6;1.4;;;;;;;31.82;31.55371;1005.532;;;;
2019/08/16 09:24:36;;;;;;;8;1.7;;;;;;;30.08;33.99316;1005.512;;;;
2019/08/16 09:27:00;;;;;;;3.3;1.3;;;;;;;29.47;35.42871;1005.477;;;;
2019/08/16 09:29:26;;;;;;;5.4;1.6;;;;;;;30.73;33.87402;1005.485;;;;
2019/08/16 09:31:51;;;;;;;3.3;1.5;;;;;;;28.94;36.58008;1005.444;;;;
2019/08/16 09:34:17;;;;;;;5.8;1.5;;;;;;;30.86;32.87695;1005.438;;;;
2019/08/16 09:36:42;;;;;;;3.7;1.6;;;;;;;29.81;35.21582;1005.419;;;;
2019/08/16 09:39:07;;;;;;;5.3;1.6;;;;;;;29.81;34.42676;1005.409;;;;
2019/08/16 09:41:32;;;;;;;8.9;1.9;;;;;;;29.57;35.01758;1005.438;;;;
2019/08/16 09:43:57;;;;;;;4.9;1.7;;;;;;;29.51;35.3125;1005.402;;;;
2019/08/16 09:46:23;;;;;;;6.5;1.9;;;;;;;29.28;35.7959;1005.368;;;;
2019/08/16 09:48:48;;;;;;;4.3;1.5;;;;;;;29.84;34.58398;1005.305;;;;
2019/08/16 09:51:13;;;;;;;3.5;1.5;;;;;;;30.27;34.5459;1005.338;;;;
2019/08/16 09:53:38;;;;;;;4.4;1.7;;;;;;;29.91;34.64941;1005.36;;;;
2019/08/16 09:56:03;;;;;;;7.6;1.8;;;;;;;30.07;34.28027;1005.278;;;;
2019/08/16 09:58:29;;;;;;;3.7;1.4;;;;;;;29.14;35.0918;1005.335;;;;
2019/08/16 10:00:54;;;;;;;5;1.6;;;;;;;29.14;35.72461;1005.29;;;;
2019/08/16 10:03:19;;;;;;;4.8;1.7;;;;;;;28.68;36.77344;1005.254;;;;
2019/08/16 10:05:44;;;;;;;6.5;1.7;;;;;;;27.65;38.33203;1005.207;;;;
2019/08/16 10:08:09;;;;;;;4.1;1.7;;;;;;;27.63;38.40234;1005.197;;;;
2019/08/16 10:10:35;;;;;;;4.1;1.5;;;;;;;27.44;38.45703;1005.174;;;;
2019/08/16 10:13:00;;;;;;;5.9;1.7;;;;;;;27.26;38.46582;1005.181;;;;
2019/08/16 10:15:25;;;;;;;5.5;1.7;;;;;;;27.58;38.05273;1005.162;;;;
2019/08/16 10:17:50;;;;;;;4.9;1.5;;;;;;;29.01;35.5957;1005.136;;;;
2019/08/16 10:20:15;;;;;;;4.1;1.5;;;;;;;28.86;35.36914;1005.158;;;;
2019/08/16 10:22:40;;;;;;;4.9;1.8;;;;;;;28.28;36.0498;1005.215;;;;
2019/08/16 10:25:05;;;;;;;3.8;1.4;;;;;;;26.74;38.5166;1005.124;;;;
2019/08/16 10:27:31;;;;;;;3.9;1.8;;;;;;;26.99;39.54883;1005.178;;;;
2019/08/16 10:29:56;;;;;;;3.7;1.5;;;;;;;27.69;37.75293;1005.101;;;;
2019/08/16 10:32:21;;;;;;;3.6;1.3;;;;;;;28.86;35.64355;1005.086;;;;
2019/08/16 10:34:46;;;;;;;5.4;1.8;;;;;;;27.66;37.58398;1005.057;;;;
2019/08/16 10:37:11;;;;;;;7.4;1.7;;;;;;;28.03;37.16113;1005.102;;;;
2019/08/16 10:39:36;;;;;;;4.7;1.5;;;;;;;28.61;35.76758;1005.048;;;;
2019/08/16 10:42:02;;;;;;;3.6;1.5;;;;;;;29.12;34.75586;1004.993;;;;
2019/08/16 10:44:26;;;;;;;4;1.5;;;;;;;27.14;38.26465;1004.92;;;;
2019/08/16 10:46:52;;;;;;;3.6;1.9;;;;;;;26.4;40.64648;1004.909;;;;
2019/08/16 10:49:16;;;;;;;5.5;1.8;;;;;;;26.35;40.90332;1004.834;;;;
2019/08/16 10:51:44;;;;;;;4.2;1.6;;;;;;;27.08;40.03125;1004.832;;;;
2019/08/16 10:54:07;;;;;;;4.6;1.5;;;;;;;26.68;40.44727;1004.91;;;;
2019/08/16 10:56:32;;;;;;;4.7;1.5;;;;;;;26.32;40.80566;1004.845;;;;
2019/08/16 10:58:57;;;;;;;5.7;1.8;;;;;;;25.56;42.28906;1004.811;;;;
2019/08/16 11:01:22;;;;;;;4.7;1.7;;;;;;;26.05;42.08594;1004.801;;;;
2019/08/16 11:03:47;;;;;;;3.6;1.3;;;;;;;26.42;40.95801;1004.749;;;;
2019/08/16 11:06:12;;;;;;;5.4;1.9;;;;;;;25.72;42.58789;1004.793;;;;
2019/08/16 11:08:38;;;;;;;7.2;1.7;;;;;;;25.92;42.44141;1004.697;;;;
2019/08/16 11:11:03;;;;;;;5.8;1.7;;;;;;;25.88;41.87988;1004.727;;;;
2019/08/16 11:13:28;;;;;;;6.4;1.9;;;;;;;25.86;42.81543;1004.705;;;;
2019/08/16 11:15:53;;;;;;;6.5;1.8;;;;;;;26.08;42.7168;1004.624;;;;
2019/08/16 11:18:18;;;;;;;5.8;1.7;;;;;;;25.28;42.61719;1004.641;;;;
2019/08/16 11:20:43;;;;;;;6;1.6;;;;;;;25.48;42.94336;1004.611;;;;
2019/08/16 11:23:09;;;;;;;6.1;1.8;;;;;;;25.8;42.37012;1004.547;;;;
2019/08/16 11:25:34;;;;;;;7.7;1.8;;;;;;;26.18;42.4541;1004.491;;;;
2019/08/16 11:27:59;;;;;;;4.8;1.7;;;;;;;25.9;41.34863;1004.547;;;;
2019/08/16 11:30:24;;;;;;;4.6;1.8;;;;;;;26.26;41.46484;1004.505;;;;
2019/08/16 11:32:49;;;;;;;3.7;1.6;;;;;;;26.05;41.80176;1004.434;;;;
2019/08/16 11:35:14;;;;;;;4.9;2.1;;;;;;;26.06;42.76172;1004.45;;;;
2019/08/16 11:37:40;;;;;;;3.8;1.5;;;;;;;26.55;41.41992;1004.395;;;;
2019/08/16 11:40:04;;;;;;;6.4;1.6;;;;;;;26.75;40.87988;1004.385;;;;
2019/08/16 11:42:41;;;;;;;3.3;1.6;;;;;;;26.17;41.18359;1004.333;;;;
2019/08/16 11:47:31;;;;;;;5.2;1.9;;;;;;;26.59;40.1543;1004.315;;;;
2019/08/16 11:49:48;;;;;;;6;1.6;;;;;;;26.27;40.76563;1004.355;;;;
2019/08/16 11:52:11;;;;;;;5.3;1.7;;;;;;;27.26;38.06152;1004.386;;;;
2019/08/16 11:54:36;;;;;;;3.8;1.7;;;;;;;26.6;39.59668;1004.352;;;;
2019/08/16 11:57:01;;;;;;;4.1;1.3;;;;;;;26.41;40.23242;1004.307;;;;
2019/08/16 11:59:26;;;;;;;6.4;1.9;;;;;;;26.58;40.27148;1004.296;;;;
2019/08/16 12:01:51;;;;;;;6.9;1.9;;;;;;;26.94;39.53125;1004.305;;;;
2019/08/16 12:04:16;;;;;;;4.7;2;;;;;;;26.72;39.67871;1004.188;;;;
2019/08/16 12:06:41;;;;;;;4.8;1.8;;;;;;;27.12;39.1084;1004.198;;;;
2019/08/16 12:09:07;;;;;;;3.5;1.7;;;;;;;27;39.22754;1004.203;;;;
2019/08/16 12:11:32;;;;;;;5.9;1.6;;;;;;;26.55;40.51758;1004.147;;;;
2019/08/16 12:13:58;;;;;;;4.2;2;;;;;;;27.38;38.54785;1004.124;;;;
2019/08/16 12:16:23;;;;;;;6.1;1.7;;;;;;;26.98;39.70117;1004.116;;;;
2019/08/16 12:18:48;;;;;;;4.7;1.6;;;;;;;27.41;39.17969;1004.127;;;;
2019/08/16 12:21:13;;;;;;;3.5;2;;;;;;;27.93;38.8916;1004.082;;;;
2019/08/16 12:23:39;;;;;;;5.2;1.7;;;;;;;27.71;38.39746;1004.097;;;;
2019/08/16 12:26:03;;;;;;;3.6;1.5;;;;;;;27.33;39.51855;1004.059;;;;
2019/08/16 12:28:29;;;;;;;5.3;1.6;;;;;;;26.75;39.83496;1003.992;;;;
2019/08/16 12:30:54;;;;;;;2.8;1.6;;;;;;;27.05;39.94531;1004.039;;;;
2019/08/16 12:33:19;;;;;;;4;1.8;;;;;;;27.63;38.84277;1004.054;;;;
2019/08/16 12:35:44;;;;;;;3.4;1.5;;;;;;;27.51;38.96289;1004.025;;;;
2019/08/16 12:38:09;;;;;;;6.3;1.7;;;;;;;27.46;38.70898;1003.971;;;;
2019/08/16 12:40:34;;;;;;;5.5;1.9;;;;;;;26.84;40.41406;1003.962;;;;
2019/08/16 12:42:59;;;;;;;5.3;2.1;;;;;;;26.97;40.37793;1003.954;;;;
2019/08/16 12:45:25;;;;;;;8.1;1.6;;;;;;;26.77;40.24121;1003.928;;;;
2019/08/16 12:47:50;;;;;;;6.8;1.9;;;;;;;27.21;38.98438;1003.887;;;;
2019/08/16 12:50:15;;;;;;;3.6;1.5;;;;;;;27.16;39.78906;1003.87;;;;
2019/08/16 12:52:41;;;;;;;6.1;1.6;;;;;;;26.09;41.11719;1003.903;;;;
2019/08/16 12:55:06;;;;;;;4.6;1.5;;;;;;;26.58;40.77051;1003.823;;;;
2019/08/16 12:57:30;;;;;;;3.4;1.5;;;;;;;26.85;40.88965;1003.825;;;;
2019/08/16 12:59:56;;;;;;;4.4;1.5;;;;;;;26.85;39.60645;1003.785;;;;
2019/08/16 13:02:21;;;;;;;4.6;1.8;;;;;;;26.69;39.24805;1003.789;;;;
2019/08/16 13:04:46;;;;;;;4.1;1.6;;;;;;;26.23;41.24902;1003.764;;;;
2019/08/16 13:07:11;;;;;;;5.7;1.8;;;;;;;26.31;39.98535;1003.708;;;;
2019/08/16 13:09:36;;;;;;;6.6;1.7;;;;;;;26.14;41.48926;1003.676;;;;
2019/08/16 13:12:01;;;;;;;7;1.9;;;;;;;26.03;41.93066;1003.651;;;;
2019/08/16 13:14:26;;;;;;;5.7;2;;;;;;;25.94;42.4082;1003.563;;;;
2019/08/16 13:16:51;;;;;;;3.8;1.7;;;;;;;26.01;42.05762;1003.562;;;;
2019/08/16 13:19:17;;;;;;;5.1;1.8;;;;;;;25.91;42.41602;1003.587;;;;
2019/08/16 13:21:42;;;;;;;5.4;1.7;;;;;;;26;42.41309;1003.588;;;;
2019/08/16 13:24:07;;;;;;;5.9;1.9;;;;;;;26.12;42.08008;1003.568;;;;
2019/08/16 13:26:32;;;;;;;4.3;1.8;;;;;;;25.6;42.41016;1003.537;;;;
2019/08/16 13:28:57;;;;;;;4.4;2;;;;;;;26.08;42.25488;1003.481;;;;
2019/08/16 13:31:22;;;;;;;2.7;1.6;;;;;;;26.38;41.42773;1003.479;;;;
2019/08/16 13:33:47;;;;;;;3.9;1.8;;;;;;;26.52;40.75293;1003.388;;;;
2019/08/16 13:36:12;;;;;;;6.7;1.7;;;;;;;26.62;40.33398;1003.406;;;;
2019/08/16 13:38:38;;;;;;;5.3;1.7;;;;;;;26.67;39.875;1003.37;;;;
2019/08/16 13:41:03;;;;;;;4.3;1.9;;;;;;;26.12;41.22656;1003.409;;;;
2019/08/16 13:43:28;;;;;;;5.1;1.5;;;;;;;26.54;41.33594;1003.403;;;;
2019/08/16 13:45:53;;;;;;;5.7;2.1;;;;;;;26.11;41.72363;1003.383;;;;
2019/08/16 13:48:18;;;;;;;5.2;1.7;;;;;;;26.3;41.36133;1003.384;;;;
2019/08/16 13:50:44;;;;;;;5.2;2;;;;;;;26.51;41.98633;1003.402;;;;
2019/08/16 13:53:09;;;;;;;4.9;1.8;;;;;;;26.45;41.0918;1003.409;;;;
2019/08/16 13:55:34;;;;;;;4;1.8;;;;;;;26.5;40.66699;1003.43;;;;
2019/08/16 13:58:00;;;;;;;5.4;1.7;;;;;;;25.99;41.47461;1003.431;;;;
2019/08/16 14:00:25;;;;;;;5.5;1.9;;;;;;;26.12;41.89063;1003.377;;;;
2019/08/16 14:02:50;;;;;;;4;1.5;;;;;;;26.31;41.04199;1003.344;;;;
2019/08/16 14:05:15;;;;;;;7.2;1.9;;;;;;;26.5;41.33203;1003.34;;;;
2019/08/16 14:07:40;;;;;;;7.1;1.9;;;;;;;26.86;39.90527;1003.328;;;;
2019/08/16 14:10:06;;;;;;;5;1.7;;;;;;;27.04;39.08789;1003.261;;;;
2019/08/16 14:12:31;;;;;;;4.5;2.3;;;;;;;27.39;38.28613;1003.251;;;;
2019/08/16 14:14:56;;;;;;;4.8;1.9;;;;;;;27.55;38.14551;1003.16;;;;
2019/08/16 14:17:21;;;;;;;6.1;1.9;;;;;;;27.06;38.0918;1003.147;;;;
2019/08/16 14:19:46;;;;;;;4;1.7;;;;;;;26.9;38.80371;1003.123;;;;
2019/08/16 14:22:12;;;;;;;6.5;1.8;;;;;;;26.44;39.7959;1003.124;;;;
2019/08/16 14:24:37;;;;;;;4;1.6;;;;;;;26.04;39.91406;1003.123;;;;
2019/08/16 14:27:02;;;;;;;5.8;1.8;;;;;;;26.4;38.97363;1003.055;;;;